sensor_id;sensor_type;location;lat;lon;timestamp;temperature;humidity
12384;DHT22;6256;63.808;20.336;2022-12-24T00:01:14;-4.60;99.90
12384;DHT22;6256;63.808;20.336;2022-12-24T00:03:39;-4.60;99.90
12384;DHT22;6256;63.808;20.336;2022-12-24T00:06:07;-4.60;99.90
12384;DHT22;6256;63.808;20.336;2022-12-24T00:08:33;-4.60;99.90
12384;DHT22;6256;63.808;20.336;2022-12-24T00:10:59;-4.70;99.90
12384;DHT22;6256;63.808;20.336;2022-12-24T00:13:25;-4.60;99.90
12384;DHT22;6256;63.808;20.336;2022-12-24T00:15:50;-4.60;99.90
12384;DHT22;6256;63.808;20.336;2022-12-24T00:18:16;-4.70;99.90
12384;DHT22;6256;63.808;20.336;2022-12-24T00:20:46;-4.60;99.90
12384;DHT22;6256;63.808;20.336;2022-12-24T00:23:12;-4.70;99.90
12384;DHT22;6256;63.808;20.336;2022-12-24T00:25:38;-4.70;99.90
12384;DHT22;6256;63.808;20.336;2022-12-24T00:28:03;-4.70;99.90
12384;DHT22;6256;63.808;20.336;2022-12-24T00:30:29;-4.70;99.90
12384;DHT22;6256;63.808;20.336;2022-12-24T00:32:55;-4.70;99.90
12384;DHT22;6256;63.808;20.336;2022-12-24T00:35:21;-4.80;99.90
12384;DHT22;6256;63.808;20.336;2022-12-24T00:37:47;-4.80;99.90
12384;DHT22;6256;63.808;20.336;2022-12-24T00:40:14;-4.80;99.90
12384;DHT22;6256;63.808;20.336;2022-12-24T00:42:40;-4.80;99.90
12384;DHT22;6256;63.808;20.336;2022-12-24T00:45:06;-4.80;99.90
12384;DHT22;6256;63.808;20.336;2022-12-24T00:47:32;-4.80;99.90
12384;DHT22;6256;63.808;20.336;2022-12-24T00:49:58;-4.80;99.90
12384;DHT22;6256;63.808;20.336;2022-12-24T00:52:23;-4.80;99.90
12384;DHT22;6256;63.808;20.336;2022-12-24T00:54:49;-4.80;99.90
12384;DHT22;6256;63.808;20.336;2022-12-24T00:57:18;-4.80;99.90
12384;DHT22;6256;63.808;20.336;2022-12-24T00:59:44;-4.80;99.90
12384;DHT22;6256;63.808;20.336;2022-12-24T01:02:09;-4.80;99.90
12384;DHT22;6256;63.808;20.336;2022-12-24T01:04:35;-4.70;99.90
12384;DHT22;6256;63.808;20.336;2022-12-24T01:07:24;-4.80;99.90
12384;DHT22;6256;63.808;20.336;2022-12-24T01:09:50;-4.70;99.90
12384;DHT22;6256;63.808;20.336;2022-12-24T01:12:16;-4.80;99.90
12384;DHT22;6256;63.808;20.336;2022-12-24T01:14:41;-4.70;99.90
12384;DHT22;6256;63.808;20.336;2022-12-24T01:17:07;-4.80;99.90
12384;DHT22;6256;63.808;20.336;2022-12-24T01:19:33;-4.80;99.90
12384;DHT22;6256;63.808;20.336;2022-12-24T01:21:58;-4.90;99.90
12384;DHT22;6256;63.808;20.336;2022-12-24T01:24:24;-4.80;99.90
12384;DHT22;6256;63.808;20.336;2022-12-24T01:26:50;-4.80;99.90
12384;DHT22;6256;63.808;20.336;2022-12-24T01:29:16;-4.80;99.90
12384;DHT22;6256;63.808;20.336;2022-12-24T01:31:41;-4.80;99.90
12384;DHT22;6256;63.808;20.336;2022-12-24T01:34:07;-4.80;99.90
12384;DHT22;6256;63.808;20.336;2022-12-24T01:36:33;-4.90;99.90
12384;DHT22;6256;63.808;20.336;2022-12-24T01:38:58;-4.80;99.90
12384;DHT22;6256;63.808;20.336;2022-12-24T01:41:25;-4.90;99.90
12384;DHT22;6256;63.808;20.336;2022-12-24T01:47:25;-4.90;99.90
12384;DHT22;6256;63.808;20.336;2022-12-24T01:49:58;-4.90;99.90
12384;DHT22;6256;63.808;20.336;2022-12-24T01:52:29;-5.00;99.90
12384;DHT22;6256;63.808;20.336;2022-12-24T01:55:15;-5.00;99.90
12384;DHT22;6256;63.808;20.336;2022-12-24T01:57:47;-5.20;99.90
12384;DHT22;6256;63.808;20.336;2022-12-24T02:00:14;-5.20;99.90
12384;DHT22;6256;63.808;20.336;2022-12-24T02:02:43;-5.30;99.90
12384;DHT22;6256;63.808;20.336;2022-12-24T02:05:58;-5.20;99.90
12384;DHT22;6256;63.808;20.336;2022-12-24T02:08:05;-5.20;99.90
12384;DHT22;6256;63.808;20.336;2022-12-24T02:10:32;-5.20;99.90
12384;DHT22;6256;63.808;20.336;2022-12-24T02:12:58;-5.20;99.90
12384;DHT22;6256;63.808;20.336;2022-12-24T02:15:28;-5.30;99.90
12384;DHT22;6256;63.808;20.336;2022-12-24T02:18:11;-5.30;99.90
12384;DHT22;6256;63.808;20.336;2022-12-24T02:26:41;-5.30;99.90
12384;DHT22;6256;63.808;20.336;2022-12-24T02:32:14;-5.30;99.90
12384;DHT22;6256;63.808;20.336;2022-12-24T02:34:51;-5.40;99.90
12384;DHT22;6256;63.808;20.336;2022-12-24T02:37:30;-5.40;99.90
12384;DHT22;6256;63.808;20.336;2022-12-24T02:40:10;-5.40;99.90
12384;DHT22;6256;63.808;20.336;2022-12-24T02:42:40;-5.40;99.90
12384;DHT22;6256;63.808;20.336;2022-12-24T02:45:19;-5.50;99.90
12384;DHT22;6256;63.808;20.336;2022-12-24T02:47:47;-5.60;99.90
12384;DHT22;6256;63.808;20.336;2022-12-24T02:50:17;-5.70;99.90
12384;DHT22;6256;63.808;20.336;2022-12-24T02:52:44;-5.80;99.90
12384;DHT22;6256;63.808;20.336;2022-12-24T03:00:22;-6.10;99.90
12384;DHT22;6256;63.808;20.336;2022-12-24T03:05:41;-6.20;99.90
12384;DHT22;6256;63.808;20.336;2022-12-24T03:11:08;-6.20;99.90
12384;DHT22;6256;63.808;20.336;2022-12-24T03:13:35;-6.10;99.90
12384;DHT22;6256;63.808;20.336;2022-12-24T03:16:06;-6.00;99.90
12384;DHT22;6256;63.808;20.336;2022-12-24T03:18:33;-5.90;99.90
12384;DHT22;6256;63.808;20.336;2022-12-24T03:21:06;-5.90;99.90
12384;DHT22;6256;63.808;20.336;2022-12-24T03:23:34;-5.90;99.90
12384;DHT22;6256;63.808;20.336;2022-12-24T03:26:03;-5.80;99.90
12384;DHT22;6256;63.808;20.336;2022-12-24T03:28:30;-5.90;99.90
12384;DHT22;6256;63.808;20.336;2022-12-24T03:31:01;-5.90;99.90
12384;DHT22;6256;63.808;20.336;2022-12-24T03:33:28;-6.00;99.90
12384;DHT22;6256;63.808;20.336;2022-12-24T03:35:53;-6.10;99.90
12384;DHT22;6256;63.808;20.336;2022-12-24T03:38:19;-6.00;99.90
12384;DHT22;6256;63.808;20.336;2022-12-24T03:40:45;-6.00;99.90
12384;DHT22;6256;63.808;20.336;2022-12-24T03:43:11;-6.00;99.90
12384;DHT22;6256;63.808;20.336;2022-12-24T03:45:37;-5.90;99.90
12384;DHT22;6256;63.808;20.336;2022-12-24T03:48:03;-5.90;99.90
12384;DHT22;6256;63.808;20.336;2022-12-24T03:50:29;-5.80;99.90
12384;DHT22;6256;63.808;20.336;2022-12-24T03:52:55;-5.70;99.90
12384;DHT22;6256;63.808;20.336;2022-12-24T03:55:21;-5.60;99.90
12384;DHT22;6256;63.808;20.336;2022-12-24T03:57:46;-5.60;99.90
12384;DHT22;6256;63.808;20.336;2022-12-24T04:00:13;-5.70;99.90
12384;DHT22;6256;63.808;20.336;2022-12-24T04:02:39;-5.70;99.90
12384;DHT22;6256;63.808;20.336;2022-12-24T04:05:06;-5.70;99.90
12384;DHT22;6256;63.808;20.336;2022-12-24T04:07:32;-5.70;99.90
12384;DHT22;6256;63.808;20.336;2022-12-24T04:09:58;-5.80;99.90
12384;DHT22;6256;63.808;20.336;2022-12-24T04:12:23;-5.90;99.90
12384;DHT22;6256;63.808;20.336;2022-12-24T04:14:49;-5.90;99.90
12384;DHT22;6256;63.808;20.336;2022-12-24T04:17:15;-6.00;99.90
12384;DHT22;6256;63.808;20.336;2022-12-24T04:19:41;-6.20;99.90
12384;DHT22;6256;63.808;20.336;2022-12-24T04:22:07;-6.30;99.90
12384;DHT22;6256;63.808;20.336;2022-12-24T04:24:32;-6.40;99.90
12384;DHT22;6256;63.808;20.336;2022-12-24T04:26:58;-6.50;99.90
12384;DHT22;6256;63.808;20.336;2022-12-24T04:29:24;-6.60;99.90
12384;DHT22;6256;63.808;20.336;2022-12-24T04:31:49;-6.80;99.90
12384;DHT22;6256;63.808;20.336;2022-12-24T04:34:15;-6.90;99.90
12384;DHT22;6256;63.808;20.336;2022-12-24T04:36:41;-7.00;99.90
12384;DHT22;6256;63.808;20.336;2022-12-24T04:39:07;-7.00;99.90
12384;DHT22;6256;63.808;20.336;2022-12-24T04:41:33;-7.00;99.90
12384;DHT22;6256;63.808;20.336;2022-12-24T04:43:58;-7.00;99.90
12384;DHT22;6256;63.808;20.336;2022-12-24T04:46:27;-7.10;99.90
12384;DHT22;6256;63.808;20.336;2022-12-24T04:48:56;-7.10;99.90
12384;DHT22;6256;63.808;20.336;2022-12-24T04:51:23;-7.20;99.90
12384;DHT22;6256;63.808;20.336;2022-12-24T04:53:50;-7.30;99.90
12384;DHT22;6256;63.808;20.336;2022-12-24T04:56:19;-7.40;99.90
12384;DHT22;6256;63.808;20.336;2022-12-24T04:58:45;-7.40;99.90
12384;DHT22;6256;63.808;20.336;2022-12-24T05:01:19;-7.50;99.90
12384;DHT22;6256;63.808;20.336;2022-12-24T05:03:46;-7.60;99.90
12384;DHT22;6256;63.808;20.336;2022-12-24T05:06:14;-7.70;99.90
12384;DHT22;6256;63.808;20.336;2022-12-24T05:08:41;-7.80;99.90
12384;DHT22;6256;63.808;20.336;2022-12-24T05:11:06;-7.90;99.90
12384;DHT22;6256;63.808;20.336;2022-12-24T05:13:32;-7.90;99.90
12384;DHT22;6256;63.808;20.336;2022-12-24T05:15:58;-7.90;99.90
12384;DHT22;6256;63.808;20.336;2022-12-24T05:18:24;-7.90;99.90
12384;DHT22;6256;63.808;20.336;2022-12-24T05:20:50;-7.90;99.90
12384;DHT22;6256;63.808;20.336;2022-12-24T05:23:17;-7.90;99.90
12384;DHT22;6256;63.808;20.336;2022-12-24T05:26:02;-7.90;99.90
12384;DHT22;6256;63.808;20.336;2022-12-24T05:28:48;-7.80;99.90
12384;DHT22;6256;63.808;20.336;2022-12-24T05:31:14;-7.70;99.90
12384;DHT22;6256;63.808;20.336;2022-12-24T05:33:40;-7.60;99.90
12384;DHT22;6256;63.808;20.336;2022-12-24T05:36:05;-7.60;99.90
12384;DHT22;6256;63.808;20.336;2022-12-24T05:38:31;-7.60;99.90
12384;DHT22;6256;63.808;20.336;2022-12-24T05:40:57;-7.60;99.90
12384;DHT22;6256;63.808;20.336;2022-12-24T05:43:23;-7.70;99.90
12384;DHT22;6256;63.808;20.336;2022-12-24T05:45:48;-7.60;99.90
12384;DHT22;6256;63.808;20.336;2022-12-24T05:48:14;-7.70;99.90
12384;DHT22;6256;63.808;20.336;2022-12-24T05:50:40;-7.70;99.90
12384;DHT22;6256;63.808;20.336;2022-12-24T05:53:06;-7.60;99.90
12384;DHT22;6256;63.808;20.336;2022-12-24T05:55:33;-7.60;99.90
12384;DHT22;6256;63.808;20.336;2022-12-24T05:57:59;-7.60;99.90
12384;DHT22;6256;63.808;20.336;2022-12-24T06:00:25;-7.70;99.90
12384;DHT22;6256;63.808;20.336;2022-12-24T06:02:51;-7.70;99.90
12384;DHT22;6256;63.808;20.336;2022-12-24T06:05:16;-7.70;99.90
12384;DHT22;6256;63.808;20.336;2022-12-24T06:07:42;-7.80;99.90
12384;DHT22;6256;63.808;20.336;2022-12-24T06:10:08;-7.80;99.90
12384;DHT22;6256;63.808;20.336;2022-12-24T06:12:34;-7.80;99.90
12384;DHT22;6256;63.808;20.336;2022-12-24T06:14:59;-7.90;99.90
12384;DHT22;6256;63.808;20.336;2022-12-24T06:17:25;-7.90;99.90
12384;DHT22;6256;63.808;20.336;2022-12-24T06:19:51;-7.90;99.90
12384;DHT22;6256;63.808;20.336;2022-12-24T06:22:16;-7.70;99.90
12384;DHT22;6256;63.808;20.336;2022-12-24T06:24:42;-7.80;99.90
12384;DHT22;6256;63.808;20.336;2022-12-24T06:27:08;-7.70;99.90
12384;DHT22;6256;63.808;20.336;2022-12-24T06:29:33;-7.80;99.90
12384;DHT22;6256;63.808;20.336;2022-12-24T06:31:59;-7.80;99.90
12384;DHT22;6256;63.808;20.336;2022-12-24T06:34:25;-7.80;99.90
12384;DHT22;6256;63.808;20.336;2022-12-24T06:36:51;-7.80;99.90
12384;DHT22;6256;63.808;20.336;2022-12-24T06:39:16;-7.70;99.90
12384;DHT22;6256;63.808;20.336;2022-12-24T06:41:42;-7.80;99.90
12384;DHT22;6256;63.808;20.336;2022-12-24T06:44:08;-7.90;99.90
12384;DHT22;6256;63.808;20.336;2022-12-24T06:46:34;-8.00;99.90
12384;DHT22;6256;63.808;20.336;2022-12-24T06:48:59;-8.10;99.90
12384;DHT22;6256;63.808;20.336;2022-12-24T06:51:25;-8.20;99.90
12384;DHT22;6256;63.808;20.336;2022-12-24T06:53:51;-8.20;99.90
12384;DHT22;6256;63.808;20.336;2022-12-24T06:56:18;-8.20;99.90
12384;DHT22;6256;63.808;20.336;2022-12-24T06:58:44;-8.30;99.90
12384;DHT22;6256;63.808;20.336;2022-12-24T07:01:11;-8.30;99.90
12384;DHT22;6256;63.808;20.336;2022-12-24T07:03:38;-8.40;99.90
12384;DHT22;6256;63.808;20.336;2022-12-24T07:06:04;-8.40;99.90
12384;DHT22;6256;63.808;20.336;2022-12-24T07:08:30;-8.40;99.90
12384;DHT22;6256;63.808;20.336;2022-12-24T07:10:58;-8.40;99.90
12384;DHT22;6256;63.808;20.336;2022-12-24T07:13:24;-8.30;99.90
12384;DHT22;6256;63.808;20.336;2022-12-24T07:15:57;-8.30;99.90
12384;DHT22;6256;63.808;20.336;2022-12-24T07:18:23;-8.30;99.90
12384;DHT22;6256;63.808;20.336;2022-12-24T07:20:50;-8.40;99.90
12384;DHT22;6256;63.808;20.336;2022-12-24T07:23:16;-8.40;99.90
12384;DHT22;6256;63.808;20.336;2022-12-24T07:25:42;-8.50;99.90
12384;DHT22;6256;63.808;20.336;2022-12-24T07:28:08;-8.50;99.90
12384;DHT22;6256;63.808;20.336;2022-12-24T07:30:34;-8.60;99.90
12384;DHT22;6256;63.808;20.336;2022-12-24T07:33:00;-8.60;99.90
12384;DHT22;6256;63.808;20.336;2022-12-24T07:35:25;-8.60;99.90
12384;DHT22;6256;63.808;20.336;2022-12-24T07:37:51;-8.60;99.90
12384;DHT22;6256;63.808;20.336;2022-12-24T07:40:17;-8.70;99.90
12384;DHT22;6256;63.808;20.336;2022-12-24T07:42:42;-8.70;99.90
12384;DHT22;6256;63.808;20.336;2022-12-24T07:45:08;-8.80;99.90
12384;DHT22;6256;63.808;20.336;2022-12-24T07:47:35;-8.70;99.90
12384;DHT22;6256;63.808;20.336;2022-12-24T07:50:01;-8.80;99.90
12384;DHT22;6256;63.808;20.336;2022-12-24T07:52:27;-8.80;99.90
12384;DHT22;6256;63.808;20.336;2022-12-24T07:54:52;-8.80;99.90
12384;DHT22;6256;63.808;20.336;2022-12-24T07:57:18;-8.90;99.90
12384;DHT22;6256;63.808;20.336;2022-12-24T07:59:44;-8.90;99.90
12384;DHT22;6256;63.808;20.336;2022-12-24T08:02:10;-8.90;99.90
12384;DHT22;6256;63.808;20.336;2022-12-24T08:04:36;-8.90;99.90
12384;DHT22;6256;63.808;20.336;2022-12-24T08:07:05;-9.00;99.90
12384;DHT22;6256;63.808;20.336;2022-12-24T08:09:32;-9.00;99.90
12384;DHT22;6256;63.808;20.336;2022-12-24T08:11:59;-9.00;99.90
12384;DHT22;6256;63.808;20.336;2022-12-24T08:14:27;-9.10;99.90
12384;DHT22;6256;63.808;20.336;2022-12-24T08:16:52;-8.90;99.90
12384;DHT22;6256;63.808;20.336;2022-12-24T08:19:18;-8.80;99.90
12384;DHT22;6256;63.808;20.336;2022-12-24T08:21:44;-8.80;99.90
12384;DHT22;6256;63.808;20.336;2022-12-24T08:24:10;-8.80;99.90
12384;DHT22;6256;63.808;20.336;2022-12-24T08:26:35;-8.80;99.90
12384;DHT22;6256;63.808;20.336;2022-12-24T08:29:02;-8.80;99.90
12384;DHT22;6256;63.808;20.336;2022-12-24T08:31:28;-8.70;99.90
12384;DHT22;6256;63.808;20.336;2022-12-24T08:33:54;-8.70;99.90
12384;DHT22;6256;63.808;20.336;2022-12-24T08:36:20;-8.70;99.90
12384;DHT22;6256;63.808;20.336;2022-12-24T08:38:46;-8.70;99.90
12384;DHT22;6256;63.808;20.336;2022-12-24T08:41:12;-8.80;99.90
12384;DHT22;6256;63.808;20.336;2022-12-24T08:43:37;-8.80;99.90
12384;DHT22;6256;63.808;20.336;2022-12-24T08:46:04;-8.80;99.90
12384;DHT22;6256;63.808;20.336;2022-12-24T08:48:31;-8.80;99.90
12384;DHT22;6256;63.808;20.336;2022-12-24T08:50:57;-8.80;99.90
12384;DHT22;6256;63.808;20.336;2022-12-24T08:53:23;-8.80;99.90
12384;DHT22;6256;63.808;20.336;2022-12-24T08:55:48;-8.80;99.90
12384;DHT22;6256;63.808;20.336;2022-12-24T08:58:14;-8.90;99.90
12384;DHT22;6256;63.808;20.336;2022-12-24T09:00:40;-8.90;99.90
12384;DHT22;6256;63.808;20.336;2022-12-24T09:03:06;-8.90;99.90
12384;DHT22;6256;63.808;20.336;2022-12-24T09:05:31;-8.80;99.90
12384;DHT22;6256;63.808;20.336;2022-12-24T09:07:57;-8.80;99.90
12384;DHT22;6256;63.808;20.336;2022-12-24T09:10:23;-8.60;99.90
12384;DHT22;6256;63.808;20.336;2022-12-24T09:12:49;-8.60;99.90
12384;DHT22;6256;63.808;20.336;2022-12-24T09:15:16;-8.50;99.90
12384;DHT22;6256;63.808;20.336;2022-12-24T09:17:41;-8.50;99.90
12384;DHT22;6256;63.808;20.336;2022-12-24T09:20:08;-8.40;99.90
12384;DHT22;6256;63.808;20.336;2022-12-24T09:22:35;-8.40;99.90
12384;DHT22;6256;63.808;20.336;2022-12-24T09:25:01;-8.30;99.90
12384;DHT22;6256;63.808;20.336;2022-12-24T09:27:29;-8.30;99.90
12384;DHT22;6256;63.808;20.336;2022-12-24T09:29:55;-8.30;99.90
12384;DHT22;6256;63.808;20.336;2022-12-24T09:32:21;-8.40;99.90
12384;DHT22;6256;63.808;20.336;2022-12-24T09:34:47;-8.40;99.90
12384;DHT22;6256;63.808;20.336;2022-12-24T09:37:13;-8.40;99.90
12384;DHT22;6256;63.808;20.336;2022-12-24T09:39:38;-8.40;99.90
12384;DHT22;6256;63.808;20.336;2022-12-24T09:45:34;-8.50;99.90
12384;DHT22;6256;63.808;20.336;2022-12-24T09:47:40;-8.50;99.90
12384;DHT22;6256;63.808;20.336;2022-12-24T09:52:54;-8.50;99.90
12384;DHT22;6256;63.808;20.336;2022-12-24T09:55:32;-8.60;99.90
12384;DHT22;6256;63.808;20.336;2022-12-24T09:58:02;-8.50;99.90
12384;DHT22;6256;63.808;20.336;2022-12-24T10:00:34;-8.50;99.90
12384;DHT22;6256;63.808;20.336;2022-12-24T10:03:01;-8.40;99.90
12384;DHT22;6256;63.808;20.336;2022-12-24T10:06:15;-8.40;99.90
12384;DHT22;6256;63.808;20.336;2022-12-24T10:08:40;-8.40;99.90
12384;DHT22;6256;63.808;20.336;2022-12-24T10:24:25;-7.80;99.90
12384;DHT22;6256;63.808;20.336;2022-12-24T10:27:01;-7.80;99.90
12384;DHT22;6256;63.808;20.336;2022-12-24T10:29:32;-7.70;99.90
12384;DHT22;6256;63.808;20.336;2022-12-24T10:35:01;-7.60;99.90
12384;DHT22;6256;63.808;20.336;2022-12-24T10:37:29;-7.60;99.90
12384;DHT22;6256;63.808;20.336;2022-12-24T10:39:56;-7.70;99.90
12384;DHT22;6256;63.808;20.336;2022-12-24T10:42:31;-7.70;99.90
12384;DHT22;6256;63.808;20.336;2022-12-24T10:45:05;-7.60;99.90
12384;DHT22;6256;63.808;20.336;2022-12-24T10:47:33;-7.70;99.90
12384;DHT22;6256;63.808;20.336;2022-12-24T10:50:17;-7.50;99.90
12384;DHT22;6256;63.808;20.336;2022-12-24T10:52:44;-7.50;99.90
12384;DHT22;6256;63.808;20.336;2022-12-24T10:57:36;-7.50;99.90
12384;DHT22;6256;63.808;20.336;2022-12-24T11:00:04;-7.50;99.90
12384;DHT22;6256;63.808;20.336;2022-12-24T11:02:35;-7.40;99.90
12384;DHT22;6256;63.808;20.336;2022-12-24T11:05:04;-7.50;99.90
12384;DHT22;6256;63.808;20.336;2022-12-24T11:07:30;-7.50;99.90
12384;DHT22;6256;63.808;20.336;2022-12-24T11:10:01;-7.50;99.90
12384;DHT22;6256;63.808;20.336;2022-12-24T11:15:16;-7.50;99.90
12384;DHT22;6256;63.808;20.336;2022-12-24T11:18:13;-7.40;99.90
12384;DHT22;6256;63.808;20.336;2022-12-24T11:20:39;-7.50;99.90
12384;DHT22;6256;63.808;20.336;2022-12-24T11:23:05;-7.50;99.90
12384;DHT22;6256;63.808;20.336;2022-12-24T11:25:37;-7.40;99.90
12384;DHT22;6256;63.808;20.336;2022-12-24T11:28:18;-7.30;99.90
12384;DHT22;6256;63.808;20.336;2022-12-24T11:31:20;-7.20;99.90
12384;DHT22;6256;63.808;20.336;2022-12-24T11:33:50;-7.10;99.90
12384;DHT22;6256;63.808;20.336;2022-12-24T11:36:22;-7.10;99.90
12384;DHT22;6256;63.808;20.336;2022-12-24T11:38:52;-7.00;99.90
12384;DHT22;6256;63.808;20.336;2022-12-24T11:41:19;-6.90;99.90
12384;DHT22;6256;63.808;20.336;2022-12-24T11:43:47;-7.00;99.90
12384;DHT22;6256;63.808;20.336;2022-12-24T11:51:38;-7.00;99.90
12384;DHT22;6256;63.808;20.336;2022-12-24T11:54:25;-7.00;99.90
12384;DHT22;6256;63.808;20.336;2022-12-24T11:56:54;-6.80;99.90
12384;DHT22;6256;63.808;20.336;2022-12-24T11:59:41;-6.70;99.90
12384;DHT22;6256;63.808;20.336;2022-12-24T12:04:56;-6.80;99.90
12384;DHT22;6256;63.808;20.336;2022-12-24T12:07:29;-6.90;99.90
12384;DHT22;6256;63.808;20.336;2022-12-24T12:10:04;-7.00;99.90
12384;DHT22;6256;63.808;20.336;2022-12-24T12:12:35;-7.10;99.90
12384;DHT22;6256;63.808;20.336;2022-12-24T12:15:09;-7.20;99.90
12384;DHT22;6256;63.808;20.336;2022-12-24T12:17:59;-7.30;99.90
12384;DHT22;6256;63.808;20.336;2022-12-24T12:20:31;-7.40;99.90
12384;DHT22;6256;63.808;20.336;2022-12-24T12:23:19;-7.30;99.90
12384;DHT22;6256;63.808;20.336;2022-12-24T12:31:29;-7.60;99.90
12384;DHT22;6256;63.808;20.336;2022-12-24T12:34:19;-7.60;99.90
12384;DHT22;6256;63.808;20.336;2022-12-24T12:36:50;-7.70;99.90
12384;DHT22;6256;63.808;20.336;2022-12-24T12:39:17;-7.80;99.90
12384;DHT22;6256;63.808;20.336;2022-12-24T12:44:51;-7.90;99.90
12384;DHT22;6256;63.808;20.336;2022-12-24T12:53:00;-8.00;99.90
12384;DHT22;6256;63.808;20.336;2022-12-24T12:55:44;-8.00;99.90
12384;DHT22;6256;63.808;20.336;2022-12-24T12:58:31;-8.00;99.90
12384;DHT22;6256;63.808;20.336;2022-12-24T13:01:16;-8.00;99.90
12384;DHT22;6256;63.808;20.336;2022-12-24T13:20:26;-7.80;99.90
12384;DHT22;6256;63.808;20.336;2022-12-24T13:22:59;-7.70;99.90
12384;DHT22;6256;63.808;20.336;2022-12-24T13:25:43;-7.70;99.90
12384;DHT22;6256;63.808;20.336;2022-12-24T13:28:31;-7.60;99.90
12384;DHT22;6256;63.808;20.336;2022-12-24T13:38:39;-7.80;99.90
12384;DHT22;6256;63.808;20.336;2022-12-24T13:50:20;-8.00;99.90
12384;DHT22;6256;63.808;20.336;2022-12-24T13:52:50;-8.10;99.90
12384;DHT22;6256;63.808;20.336;2022-12-24T13:55:17;-8.20;99.90
12384;DHT22;6256;63.808;20.336;2022-12-24T14:16:29;-8.70;99.90
12384;DHT22;6256;63.808;20.336;2022-12-24T14:19:13;-8.60;99.90
12384;DHT22;6256;63.808;20.336;2022-12-24T14:22:53;-8.60;99.90
12384;DHT22;6256;63.808;20.336;2022-12-24T14:25:17;-8.70;99.90
12384;DHT22;6256;63.808;20.336;2022-12-24T14:27:46;-8.70;99.90
12384;DHT22;6256;63.808;20.336;2022-12-24T14:32:47;-8.70;99.90
12384;DHT22;6256;63.808;20.336;2022-12-24T14:35:16;-8.60;99.90
12384;DHT22;6256;63.808;20.336;2022-12-24T14:38:03;-8.70;99.90
12384;DHT22;6256;63.808;20.336;2022-12-24T14:40:37;-8.60;99.90
12384;DHT22;6256;63.808;20.336;2022-12-24T14:48:59;-8.70;99.90
12384;DHT22;6256;63.808;20.336;2022-12-24T14:57:20;-8.30;99.90
12384;DHT22;6256;63.808;20.336;2022-12-24T14:59:54;-8.50;99.90
12384;DHT22;6256;63.808;20.336;2022-12-24T15:02:21;-8.50;99.90
12384;DHT22;6256;63.808;20.336;2022-12-24T15:05:09;-8.50;99.90
12384;DHT22;6256;63.808;20.336;2022-12-24T15:07:38;-8.50;99.90
12384;DHT22;6256;63.808;20.336;2022-12-24T15:10:16;-8.50;99.90
12384;DHT22;6256;63.808;20.336;2022-12-24T15:12:42;-8.50;99.90
12384;DHT22;6256;63.808;20.336;2022-12-24T15:15:16;-8.50;99.90
12384;DHT22;6256;63.808;20.336;2022-12-24T15:17:43;-8.50;99.90
12384;DHT22;6256;63.808;20.336;2022-12-24T15:20:15;-8.60;99.90
12384;DHT22;6256;63.808;20.336;2022-12-24T15:22:43;-8.60;99.90
12384;DHT22;6256;63.808;20.336;2022-12-24T15:25:24;-8.60;99.90
12384;DHT22;6256;63.808;20.336;2022-12-24T15:27:50;-8.60;99.90
12384;DHT22;6256;63.808;20.336;2022-12-24T15:30:19;-8.70;99.90
12384;DHT22;6256;63.808;20.336;2022-12-24T15:32:49;-8.80;99.90
12384;DHT22;6256;63.808;20.336;2022-12-24T15:38:37;-8.90;99.90
12384;DHT22;6256;63.808;20.336;2022-12-24T15:41:05;-8.90;99.90
12384;DHT22;6256;63.808;20.336;2022-12-24T15:43:33;-8.90;99.90
12384;DHT22;6256;63.808;20.336;2022-12-24T15:46:03;-8.90;99.90
12384;DHT22;6256;63.808;20.336;2022-12-24T15:48:30;-8.90;99.90
12384;DHT22;6256;63.808;20.336;2022-12-24T15:51:00;-9.00;99.90
12384;DHT22;6256;63.808;20.336;2022-12-24T15:56:04;-9.10;99.90
12384;DHT22;6256;63.808;20.336;2022-12-24T15:58:36;-9.00;99.90
12384;DHT22;6256;63.808;20.336;2022-12-24T16:03:30;-9.20;99.90
12384;DHT22;6256;63.808;20.336;2022-12-24T16:08:32;-9.20;99.90
12384;DHT22;6256;63.808;20.336;2022-12-24T16:11:55;-9.30;99.90
12384;DHT22;6256;63.808;20.336;2022-12-24T16:14:00;-9.30;99.90
12384;DHT22;6256;63.808;20.336;2022-12-24T16:16:38;-9.40;99.90
12384;DHT22;6256;63.808;20.336;2022-12-24T16:19:06;-9.40;99.90
12384;DHT22;6256;63.808;20.336;2022-12-24T16:21:38;-9.40;99.90
12384;DHT22;6256;63.808;20.336;2022-12-24T16:24:12;-9.50;99.90
12384;DHT22;6256;63.808;20.336;2022-12-24T16:26:39;-9.50;99.90
12384;DHT22;6256;63.808;20.336;2022-12-24T16:29:05;-9.60;99.90
12384;DHT22;6256;63.808;20.336;2022-12-24T16:31:35;-9.60;99.90
12384;DHT22;6256;63.808;20.336;2022-12-24T16:34:01;-9.70;99.90
12384;DHT22;6256;63.808;20.336;2022-12-24T16:36:29;-9.80;99.90
12384;DHT22;6256;63.808;20.336;2022-12-24T16:38:56;-9.90;99.90
12384;DHT22;6256;63.808;20.336;2022-12-24T16:41:41;-9.80;99.90
12384;DHT22;6256;63.808;20.336;2022-12-24T16:44:25;-9.90;99.90
12384;DHT22;6256;63.808;20.336;2022-12-24T16:46:52;-9.90;99.90
12384;DHT22;6256;63.808;20.336;2022-12-24T16:49:19;-10.00;99.90
12384;DHT22;6256;63.808;20.336;2022-12-24T16:51:45;-10.00;99.90
12384;DHT22;6256;63.808;20.336;2022-12-24T16:54:12;-10.00;99.90
12384;DHT22;6256;63.808;20.336;2022-12-24T16:56:39;-10.00;99.90
12384;DHT22;6256;63.808;20.336;2022-12-24T16:59:05;-10.10;99.90
12384;DHT22;6256;63.808;20.336;2022-12-24T17:01:30;-10.10;99.90
12384;DHT22;6256;63.808;20.336;2022-12-24T17:03:56;-10.00;99.90
12384;DHT22;6256;63.808;20.336;2022-12-24T17:06:22;-10.00;99.90
12384;DHT22;6256;63.808;20.336;2022-12-24T17:08:48;-10.00;99.90
12384;DHT22;6256;63.808;20.336;2022-12-24T17:11:13;-10.10;99.90
12384;DHT22;6256;63.808;20.336;2022-12-24T17:13:39;-10.10;99.90
12384;DHT22;6256;63.808;20.336;2022-12-24T17:16:05;-10.10;99.90
12384;DHT22;6256;63.808;20.336;2022-12-24T17:18:31;-10.10;99.90
12384;DHT22;6256;63.808;20.336;2022-12-24T17:20:58;-10.10;99.90
12384;DHT22;6256;63.808;20.336;2022-12-24T17:23:24;-10.20;99.90
12384;DHT22;6256;63.808;20.336;2022-12-24T17:25:50;-10.20;99.90
12384;DHT22;6256;63.808;20.336;2022-12-24T17:28:16;-10.10;99.90
12384;DHT22;6256;63.808;20.336;2022-12-24T17:30:42;-10.00;99.90
12384;DHT22;6256;63.808;20.336;2022-12-24T17:33:07;-9.80;99.90
12384;DHT22;6256;63.808;20.336;2022-12-24T17:35:33;-9.80;99.90
12384;DHT22;6256;63.808;20.336;2022-12-24T17:37:58;-9.80;99.90
12384;DHT22;6256;63.808;20.336;2022-12-24T17:40:24;-9.70;99.90
12384;DHT22;6256;63.808;20.336;2022-12-24T17:42:50;-9.60;99.90
12384;DHT22;6256;63.808;20.336;2022-12-24T17:45:15;-9.50;99.90
12384;DHT22;6256;63.808;20.336;2022-12-24T17:47:41;-9.50;99.90
12384;DHT22;6256;63.808;20.336;2022-12-24T17:50:07;-9.50;99.90
12384;DHT22;6256;63.808;20.336;2022-12-24T17:52:33;-9.50;99.90
12384;DHT22;6256;63.808;20.336;2022-12-24T17:54:59;-9.60;99.90
12384;DHT22;6256;63.808;20.336;2022-12-24T17:57:25;-9.50;99.90
12384;DHT22;6256;63.808;20.336;2022-12-24T17:59:50;-9.60;99.90
12384;DHT22;6256;63.808;20.336;2022-12-24T18:02:16;-9.50;99.90
12384;DHT22;6256;63.808;20.336;2022-12-24T18:04:42;-9.60;99.90
12384;DHT22;6256;63.808;20.336;2022-12-24T18:07:07;-9.70;99.90
12384;DHT22;6256;63.808;20.336;2022-12-24T18:09:33;-9.80;99.90
12384;DHT22;6256;63.808;20.336;2022-12-24T18:11:59;-9.80;99.90